Forside
METAR-TAF:

METAR-TAF

Lufthavne :

Bagdad Lufthavn

Bagdad, Irak

Breddekreds: 33-15-45N, længdekreds: 44-14-04E, højde: 35 m

Aktuelle vejr

Denne rapport blev lavet for 1 time og 33 minutter siden, kl. 00:00 UTC
Vind 1 kt fra varierende retninger
Temperatur 8°C
Fugtighed 76%
Tryk 1020 hPa
Sigt 10 km eller mere
ingen skyer under 1500m og ingen cumulonimbus

METAR: ORBI 210000Z VRB01KT CAVOK 08/04 Q1020 NOSIG

Tid: 04:33 (01:33 UTC)

Vejrudsigter

Denne rapport blev lavet for 2 timer og 33 minutter siden, kl. 23:00 UTC
Foreløbig gælder fra 21 på 00 UTC til 21 på 24 UTC
Vind 3 kt fra varierende retninger
Sigt 10 km eller mere
ingen skyer under 1500m og ingen cumulonimbus
ændring
fra 21 på 06 UTC til 21 på 08 UTC
Spredte skyer i en højde af 3000 ft
Spredte skyer i en højde af 8000 ft

TAF: ORBI 202300Z 2100/2124 VRB03KT CAVOK BECMG 2106/2108 SCT030 SCT080

Vejrobservationer og prognoser fra mere end 4000 lufthavne (METAR og TAF).

De gule og røde prikker repræsenterer de meteorologiske stationer.

Flyt musen over at se navnet på stationen.

Så klik over at se vejr observationer og prognoser.

At skifte det kort: Klik på de grønne knapper med et sort kors for at zoome ind; på den grønne knap med en bindestreg for at zoome ud; eller på de grønne pile for tilstødende kort.


METAR-TAF: